sensor_id;sensor_type;location;lat;lon;timestamp;pressure;altitude;pressure_sealevel;temperature;humidity
64668;BME280;51077;42.716;23.344;2023-02-21T00:01:40;95741.31;;;10.88;38.51
64668;BME280;51077;42.716;23.344;2023-02-21T00:04:24;95747.31;;;10.86;38.53
64668;BME280;51077;42.716;23.344;2023-02-21T00:07:08;95736.09;;;10.84;38.58
64668;BME280;51077;42.716;23.344;2023-02-21T00:09:52;95746.31;;;10.83;38.67
64668;BME280;51077;42.716;23.344;2023-02-21T00:12:36;95740.06;;;10.83;38.55
64668;BME280;51077;42.716;23.344;2023-02-21T00:15:20;95745.34;;;10.81;38.75
64668;BME280;51077;42.716;23.344;2023-02-21T00:18:04;95750.56;;;10.79;38.62
64668;BME280;51077;42.716;23.344;2023-02-21T00:20:47;95745.06;;;10.79;38.67
64668;BME280;51077;42.716;23.344;2023-02-21T00:23:35;95743.59;;;10.78;38.68
64668;BME280;51077;42.716;23.344;2023-02-21T00:26:21;95739.84;;;10.75;38.83
64668;BME280;51077;42.716;23.344;2023-02-21T00:29:06;95727.13;;;10.72;38.69
64668;BME280;51077;42.716;23.344;2023-02-21T00:31:50;95733.88;;;10.71;38.83
64668;BME280;51077;42.716;23.344;2023-02-21T00:34:33;95737.84;;;10.70;38.76
64668;BME280;51077;42.716;23.344;2023-02-21T00:37:18;95735.59;;;10.69;38.74
64668;BME280;51077;42.716;23.344;2023-02-21T00:40:02;95738.13;;;10.67;38.88
64668;BME280;51077;42.716;23.344;2023-02-21T00:42:46;95732.63;;;10.67;38.91
64668;BME280;51077;42.716;23.344;2023-02-21T00:45:30;95730.38;;;10.65;38.69
64668;BME280;51077;42.716;23.344;2023-02-21T00:48:21;95725.63;;;10.66;38.92
64668;BME280;51077;42.716;23.344;2023-02-21T00:51:06;95719.38;;;10.65;38.84
64668;BME280;51077;42.716;23.344;2023-02-21T00:53:49;95716.41;;;10.63;38.89
64668;BME280;51077;42.716;23.344;2023-02-21T00:56:34;95714.41;;;10.64;38.79
64668;BME280;51077;42.716;23.344;2023-02-21T00:59:17;95710.91;;;10.63;38.74
64668;BME280;51077;42.716;23.344;2023-02-21T01:02:01;95693.69;;;10.63;39.04
64668;BME280;51077;42.716;23.344;2023-02-21T01:04:45;95685.22;;;10.61;38.79
64668;BME280;51077;42.716;23.344;2023-02-21T01:07:29;95677.72;;;10.61;38.76
64668;BME280;51077;42.716;23.344;2023-02-21T01:10:13;95686.69;;;10.62;38.80
64668;BME280;51077;42.716;23.344;2023-02-21T01:12:57;95682.47;;;10.61;38.88
64668;BME280;51077;42.716;23.344;2023-02-21T01:15:41;95672.75;;;10.60;38.92
64668;BME280;51077;42.716;23.344;2023-02-21T01:18:25;95671.47;;;10.61;38.83
64668;BME280;51077;42.716;23.344;2023-02-21T01:21:14;95672.50;;;10.63;38.80
64668;BME280;51077;42.716;23.344;2023-02-21T01:23:58;95660.50;;;10.61;38.77
64668;BME280;51077;42.716;23.344;2023-02-21T01:26:42;95670.00;;;10.60;38.70
64668;BME280;51077;42.716;23.344;2023-02-21T01:29:26;95661.03;;;10.59;38.85
64668;BME280;51077;42.716;23.344;2023-02-21T01:32:10;95665.75;;;10.59;38.94
64668;BME280;51077;42.716;23.344;2023-02-21T01:34:54;95656.00;;;10.57;38.82
64668;BME280;51077;42.716;23.344;2023-02-21T01:37:39;95657.78;;;10.55;38.84
64668;BME280;51077;42.716;23.344;2023-02-21T01:40:24;95658.25;;;10.53;38.85
64668;BME280;51077;42.716;23.344;2023-02-21T01:43:20;95652.53;;;10.51;38.99
64668;BME280;51077;42.716;23.344;2023-02-21T01:46:04;95656.53;;;10.50;39.00
64668;BME280;51077;42.716;23.344;2023-02-21T01:48:50;95655.78;;;10.50;39.11
64668;BME280;51077;42.716;23.344;2023-02-21T01:51:39;95650.78;;;10.48;39.18
64668;BME280;51077;42.716;23.344;2023-02-21T01:54:26;95643.81;;;10.47;39.24
64668;BME280;51077;42.716;23.344;2023-02-21T01:57:11;95639.31;;;10.44;39.34
64668;BME280;51077;42.716;23.344;2023-02-21T01:59:57;95639.31;;;10.44;39.40
64668;BME280;51077;42.716;23.344;2023-02-21T02:03:04;95632.34;;;10.43;39.54
64668;BME280;51077;42.716;23.344;2023-02-21T02:05:51;95624.63;;;10.42;39.36
64668;BME280;51077;42.716;23.344;2023-02-21T02:08:37;95623.13;;;10.41;39.49
64668;BME280;51077;42.716;23.344;2023-02-21T02:17:35;95620.38;;;10.35;39.75
64668;BME280;51077;42.716;23.344;2023-02-21T02:26:04;95617.41;;;10.33;39.83
64668;BME280;51077;42.716;23.344;2023-02-21T02:36:49;95606.91;;;10.31;39.78
64668;BME280;51077;42.716;23.344;2023-02-21T02:39:30;95615.16;;;10.31;40.00
64668;BME280;51077;42.716;23.344;2023-02-21T02:44:39;95608.91;;;10.31;39.78
64668;BME280;51077;42.716;23.344;2023-02-21T02:47:10;95594.97;;;10.29;40.00
64668;BME280;51077;42.716;23.344;2023-02-21T02:49:40;95599.72;;;10.28;39.96
64668;BME280;51077;42.716;23.344;2023-02-21T02:52:08;95592.72;;;10.27;39.84
64668;BME280;51077;42.716;23.344;2023-02-21T02:54:33;95598.97;;;10.28;39.95
64668;BME280;51077;42.716;23.344;2023-02-21T02:57:01;95600.69;;;10.25;39.65
64668;BME280;51077;42.716;23.344;2023-02-21T02:59:29;95599.22;;;10.24;40.05
64668;BME280;51077;42.716;23.344;2023-02-21T03:05:07;95594.69;;;10.21;40.03
64668;BME280;51077;42.716;23.344;2023-02-21T03:10:15;95588.47;;;10.15;40.27
64668;BME280;51077;42.716;23.344;2023-02-21T03:15:15;95597.44;;;10.16;39.95
64668;BME280;51077;42.716;23.344;2023-02-21T03:17:50;95601.44;;;10.15;40.00
64668;BME280;51077;42.716;23.344;2023-02-21T03:20:19;95594.44;;;10.14;40.01
64668;BME280;51077;42.716;23.344;2023-02-21T03:22:46;95595.69;;;10.13;40.17
64668;BME280;51077;42.716;23.344;2023-02-21T03:25:13;95581.25;;;10.12;40.08
64668;BME280;51077;42.716;23.344;2023-02-21T03:27:40;95585.72;;;10.10;40.23
64668;BME280;51077;42.716;23.344;2023-02-21T03:30:08;95590.47;;;10.09;40.35
64668;BME280;51077;42.716;23.344;2023-02-21T03:32:48;95580.00;;;10.07;40.32
64668;BME280;51077;42.716;23.344;2023-02-21T03:35:16;95581.25;;;10.06;40.15
64668;BME280;51077;42.716;23.344;2023-02-21T03:37:46;95588.75;;;10.06;40.26
64668;BME280;51077;42.716;23.344;2023-02-21T03:40:19;95585.00;;;10.03;40.35
64668;BME280;51077;42.716;23.344;2023-02-21T03:42:44;95589.47;;;10.01;40.35
64668;BME280;51077;42.716;23.344;2023-02-21T03:45:10;95597.97;;;9.97;40.58
64668;BME280;51077;42.716;23.344;2023-02-21T03:47:35;95595.97;;;9.98;40.33
64668;BME280;51077;42.716;23.344;2023-02-21T03:50:01;95600.44;;;9.95;40.58
64668;BME280;51077;42.716;23.344;2023-02-21T03:52:27;95605.94;;;9.95;40.25
64668;BME280;51077;42.716;23.344;2023-02-21T03:54:53;95602.97;;;9.93;40.47
64668;BME280;51077;42.716;23.344;2023-02-21T03:57:18;95604.19;;;9.92;40.52
64668;BME280;51077;42.716;23.344;2023-02-21T03:59:44;95609.44;;;9.90;40.64
64668;BME280;51077;42.716;23.344;2023-02-21T04:02:10;95603.69;;;9.88;40.59
64668;BME280;51077;42.716;23.344;2023-02-21T04:04:35;95609.16;;;9.88;40.59
64668;BME280;51077;42.716;23.344;2023-02-21T04:07:01;95605.94;;;9.84;40.96
64668;BME280;51077;42.716;23.344;2023-02-21T04:09:26;95610.66;;;9.83;40.58
64668;BME280;51077;42.716;23.344;2023-02-21T04:11:51;95609.19;;;9.82;40.69
64668;BME280;51077;42.716;23.344;2023-02-21T04:14:17;95603.44;;;9.80;40.81
64668;BME280;51077;42.716;23.344;2023-02-21T04:16:42;95607.44;;;9.79;40.62
64668;BME280;51077;42.716;23.344;2023-02-21T04:19:07;95616.41;;;9.80;40.84
64668;BME280;51077;42.716;23.344;2023-02-21T04:21:33;95618.88;;;9.78;40.74
64668;BME280;51077;42.716;23.344;2023-02-21T04:23:58;95617.13;;;9.75;40.76
64668;BME280;51077;42.716;23.344;2023-02-21T04:26:24;95624.63;;;9.74;40.88
64668;BME280;51077;42.716;23.344;2023-02-21T04:28:52;95624.38;;;9.72;40.91
64668;BME280;51077;42.716;23.344;2023-02-21T04:31:18;95623.13;;;9.73;42.36
64668;BME280;51077;42.716;23.344;2023-02-21T04:33:44;95625.63;;;9.77;44.97
64668;BME280;51077;42.716;23.344;2023-02-21T04:36:09;95630.09;;;9.74;45.02
64668;BME280;51077;42.716;23.344;2023-02-21T04:38:35;95637.06;;;9.70;44.97
64668;BME280;51077;42.716;23.344;2023-02-21T04:41:02;95637.31;;;9.66;45.40
64668;BME280;51077;42.716;23.344;2023-02-21T04:43:27;95632.56;;;9.61;45.45
64668;BME280;51077;42.716;23.344;2023-02-21T04:45:53;95632.81;;;9.57;45.31
64668;BME280;51077;42.716;23.344;2023-02-21T04:48:18;95626.34;;;9.55;45.24
64668;BME280;51077;42.716;23.344;2023-02-21T04:50:44;95623.34;;;9.53;45.30
64668;BME280;51077;42.716;23.344;2023-02-21T04:53:10;95617.34;;;9.49;45.11
64668;BME280;51077;42.716;23.344;2023-02-21T04:55:35;95616.38;;;9.46;45.13
64668;BME280;51077;42.716;23.344;2023-02-21T04:58:01;95614.63;;;9.43;44.97
64668;BME280;51077;42.716;23.344;2023-02-21T05:00:26;95611.13;;;9.43;44.85
64668;BME280;51077;42.716;23.344;2023-02-21T05:02:52;95619.13;;;9.41;45.07
64668;BME280;51077;42.716;23.344;2023-02-21T05:05:17;95615.34;;;9.38;44.92
64668;BME280;51077;42.716;23.344;2023-02-21T05:07:43;95607.38;;;9.35;44.91
64668;BME280;51077;42.716;23.344;2023-02-21T05:10:09;95608.63;;;9.34;44.81
64668;BME280;51077;42.716;23.344;2023-02-21T05:12:36;95605.63;;;9.31;44.62
64668;BME280;51077;42.716;23.344;2023-02-21T05:15:04;95597.16;;;9.29;44.76
64668;BME280;51077;42.716;23.344;2023-02-21T05:17:30;95596.66;;;9.25;44.77
64668;BME280;51077;42.716;23.344;2023-02-21T05:19:55;95598.38;;;9.23;44.60
64668;BME280;51077;42.716;23.344;2023-02-21T05:22:21;95601.88;;;9.23;44.87
64668;BME280;51077;42.716;23.344;2023-02-21T05:24:47;95597.63;;;9.22;44.51
64668;BME280;51077;42.716;23.344;2023-02-21T05:27:14;95603.09;;;9.22;44.50
64668;BME280;51077;42.716;23.344;2023-02-21T05:29:41;95601.88;;;9.23;44.47
64668;BME280;51077;42.716;23.344;2023-02-21T05:32:06;95603.84;;;9.23;44.42
64668;BME280;51077;42.716;23.344;2023-02-21T05:34:32;95601.38;;;9.25;44.43
64668;BME280;51077;42.716;23.344;2023-02-21T05:36:57;95595.91;;;9.25;44.27
64668;BME280;51077;42.716;23.344;2023-02-21T05:39:23;95600.41;;;9.28;44.21
64668;BME280;51077;42.716;23.344;2023-02-21T05:41:49;95600.41;;;9.28;44.22
64668;BME280;51077;42.716;23.344;2023-02-21T05:44:15;95608.13;;;9.35;44.07
64668;BME280;51077;42.716;23.344;2023-02-21T05:46:41;95608.91;;;9.41;43.96
64668;BME280;51077;42.716;23.344;2023-02-21T05:49:06;95613.13;;;9.42;43.92
64668;BME280;51077;42.716;23.344;2023-02-21T05:51:41;95612.88;;;9.51;43.67
64668;BME280;51077;42.716;23.344;2023-02-21T05:54:08;95612.91;;;9.68;43.68
64668;BME280;51077;42.716;23.344;2023-02-21T05:56:38;95613.91;;;9.88;43.29
64668;BME280;51077;42.716;23.344;2023-02-21T05:59:04;95610.41;;;10.10;42.88
64668;BME280;51077;42.716;23.344;2023-02-21T06:01:30;95612.66;;;10.34;42.37
64668;BME280;51077;42.716;23.344;2023-02-21T06:03:55;95620.34;;;10.57;41.85
64668;BME280;51077;42.716;23.344;2023-02-21T06:06:20;95627.28;;;10.81;41.92
64668;BME280;51077;42.716;23.344;2023-02-21T06:08:48;95632.63;;;11.09;41.50
64668;BME280;51077;42.716;23.344;2023-02-21T06:11:15;95630.25;;;11.36;40.92
64668;BME280;51077;42.716;23.344;2023-02-21T06:13:45;95635.84;;;11.66;40.52
64668;BME280;51077;42.716;23.344;2023-02-21T06:16:11;95633.16;;;11.96;40.33
64668;BME280;51077;42.716;23.344;2023-02-21T06:18:36;95635.91;;;12.26;39.70
64668;BME280;51077;42.716;23.344;2023-02-21T06:21:01;95633.13;;;12.56;39.26
64668;BME280;51077;42.716;23.344;2023-02-21T06:23:27;95633.28;;;12.88;39.30
64668;BME280;51077;42.716;23.344;2023-02-21T06:25:52;95627.38;;;13.22;38.50
64668;BME280;51077;42.716;23.344;2023-02-21T06:28:17;95629.50;;;13.53;38.15
64668;BME280;51077;42.716;23.344;2023-02-21T06:30:43;95633.25;;;13.88;37.52
64668;BME280;51077;42.716;23.344;2023-02-21T06:33:08;95634.22;;;14.23;37.08
64668;BME280;51077;42.716;23.344;2023-02-21T06:35:34;95637.91;;;14.57;36.59
64668;BME280;51077;42.716;23.344;2023-02-21T06:37:59;95632.00;;;14.93;36.19
64668;BME280;51077;42.716;23.344;2023-02-21T06:40:24;95638.13;;;15.26;35.63
64668;BME280;51077;42.716;23.344;2023-02-21T06:42:50;95641.69;;;15.61;35.04
64668;BME280;51077;42.716;23.344;2023-02-21T06:45:15;95641.47;;;15.93;34.59
64668;BME280;51077;42.716;23.344;2023-02-21T06:47:40;95643.47;;;16.26;34.11
64668;BME280;51077;42.716;23.344;2023-02-21T06:50:06;95646.00;;;16.45;33.73
64668;BME280;51077;42.716;23.344;2023-02-21T06:52:31;95644.84;;;16.62;33.45
64668;BME280;51077;42.716;23.344;2023-02-21T06:54:57;95640.38;;;16.79;33.17
64668;BME280;51077;42.716;23.344;2023-02-21T06:57:22;95638.41;;;16.88;32.95
64668;BME280;51077;42.716;23.344;2023-02-21T06:59:50;95646.50;;;17.14;32.71
64668;BME280;51077;42.716;23.344;2023-02-21T07:02:18;95639.94;;;17.32;32.49
64668;BME280;51077;42.716;23.344;2023-02-21T07:04:47;95647.84;;;17.65;32.14
64668;BME280;51077;42.716;23.344;2023-02-21T07:07:13;95643.84;;;17.89;31.92
64668;BME280;51077;42.716;23.344;2023-02-21T07:09:38;95632.25;;;18.21;31.53
64668;BME280;51077;42.716;23.344;2023-02-21T07:12:04;95643.94;;;18.57;31.03
64668;BME280;51077;42.716;23.344;2023-02-21T07:14:29;95646.34;;;18.92;30.88
64668;BME280;51077;42.716;23.344;2023-02-21T07:16:54;95641.69;;;19.02;30.64
64668;BME280;51077;42.716;23.344;2023-02-21T07:19:20;95647.22;;;19.25;30.33
64668;BME280;51077;42.716;23.344;2023-02-21T07:21:45;95646.19;;;19.61;29.98
64668;BME280;51077;42.716;23.344;2023-02-21T07:24:11;95639.53;;;19.89;29.77
64668;BME280;51077;42.716;23.344;2023-02-21T07:26:36;95629.81;;;19.97;29.45
64668;BME280;51077;42.716;23.344;2023-02-21T07:29:03;95629.56;;;20.11;29.37
64668;BME280;51077;42.716;23.344;2023-02-21T07:31:28;95624.00;;;20.11;29.17
64668;BME280;51077;42.716;23.344;2023-02-21T07:33:54;95622.09;;;20.21;28.69
64668;BME280;51077;42.716;23.344;2023-02-21T07:36:19;95616.56;;;20.13;29.00
64668;BME280;51077;42.716;23.344;2023-02-21T07:38:45;95612.69;;;20.08;28.96
64668;BME280;51077;42.716;23.344;2023-02-21T07:41:12;95616.81;;;20.00;29.09
64668;BME280;51077;42.716;23.344;2023-02-21T07:43:38;95613.34;;;19.92;29.06
64668;BME280;51077;42.716;23.344;2023-02-21T07:46:03;95610.44;;;19.82;29.06
64668;BME280;51077;42.716;23.344;2023-02-21T07:48:29;95616.63;;;19.73;29.22
64668;BME280;51077;42.716;23.344;2023-02-21T07:50:54;95609.16;;;19.75;29.29
64668;BME280;51077;42.716;23.344;2023-02-21T07:53:19;95600.53;;;19.89;29.48
64668;BME280;51077;42.716;23.344;2023-02-21T07:55:45;95596.84;;;19.86;29.21
64668;BME280;51077;42.716;23.344;2023-02-21T07:58:10;95603.94;;;19.79;29.35
64668;BME280;51077;42.716;23.344;2023-02-21T08:00:36;95596.19;;;19.70;29.31
64668;BME280;51077;42.716;23.344;2023-02-21T08:03:01;95599.19;;;19.57;29.19
64668;BME280;51077;42.716;23.344;2023-02-21T08:05:27;95598.88;;;19.45;29.41
64668;BME280;51077;42.716;23.344;2023-02-21T08:07:52;95589.66;;;19.35;29.34
64668;BME280;51077;42.716;23.344;2023-02-21T08:10:24;95594.16;;;19.23;29.78
64668;BME280;51077;42.716;23.344;2023-02-21T08:12:50;95590.69;;;19.07;29.65
64668;BME280;51077;42.716;23.344;2023-02-21T08:15:15;95587.19;;;18.99;29.71
64668;BME280;51077;42.716;23.344;2023-02-21T08:17:41;95582.59;;;18.86;30.05
64668;BME280;51077;42.716;23.344;2023-02-21T08:20:07;95585.38;;;18.86;29.88
64668;BME280;51077;42.716;23.344;2023-02-21T08:22:32;95582.59;;;18.86;30.13
64668;BME280;51077;42.716;23.344;2023-02-21T08:24:58;95585.72;;;18.90;30.06
64668;BME280;51077;42.716;23.344;2023-02-21T08:27:23;95576.59;;;18.97;30.01
64668;BME280;51077;42.716;23.344;2023-02-21T08:29:49;95575.13;;;18.96;29.92
64668;BME280;51077;42.716;23.344;2023-02-21T08:32:15;95579.03;;;18.93;29.71
64668;BME280;51077;42.716;23.344;2023-02-21T08:34:44;95577.75;;;18.87;29.76
64668;BME280;51077;42.716;23.344;2023-02-21T08:37:09;95577.59;;;18.77;29.88
64668;BME280;51077;42.716;23.344;2023-02-21T08:39:44;95576.66;;;18.67;29.76
64668;BME280;51077;42.716;23.344;2023-02-21T08:42:10;95575.56;;;18.54;29.64
64668;BME280;51077;42.716;23.344;2023-02-21T08:44:36;95575.75;;;18.49;29.80
64668;BME280;51077;42.716;23.344;2023-02-21T08:47:01;95569.09;;;18.52;29.69
64668;BME280;51077;42.716;23.344;2023-02-21T08:49:26;95576.09;;;18.68;29.67
64668;BME280;51077;42.716;23.344;2023-02-21T08:51:52;95566.44;;;18.84;29.58
64668;BME280;51077;42.716;23.344;2023-02-21T08:54:19;95562.31;;;19.01;29.57
64668;BME280;51077;42.716;23.344;2023-02-21T08:56:44;95567.78;;;19.24;28.91
64668;BME280;51077;42.716;23.344;2023-02-21T08:59:10;95565.81;;;19.49;28.95
64668;BME280;51077;42.716;23.344;2023-02-21T09:01:35;95572.06;;;19.73;28.64
64668;BME280;51077;42.716;23.344;2023-02-21T09:04:02;95570.47;;;19.87;28.30
64668;BME280;51077;42.716;23.344;2023-02-21T09:06:28;95563.88;;;20.00;28.19
64668;BME280;51077;42.716;23.344;2023-02-21T09:08:53;95559.75;;;20.08;28.02
64668;BME280;51077;42.716;23.344;2023-02-21T09:11:19;95555.59;;;20.17;27.79
64668;BME280;51077;42.716;23.344;2023-02-21T09:13:44;95556.25;;;20.25;27.63
64668;BME280;51077;42.716;23.344;2023-02-21T09:16:09;95555.97;;;20.39;27.50
64668;BME280;51077;42.716;23.344;2023-02-21T09:18:35;95553.47;;;20.68;27.58
64668;BME280;51077;42.716;23.344;2023-02-21T09:21:00;95541.69;;;21.12;27.05
64668;BME280;51077;42.716;23.344;2023-02-21T09:23:28;95551.72;;;21.42;26.89
64668;BME280;51077;42.716;23.344;2023-02-21T09:25:54;95546.50;;;21.73;26.59
64668;BME280;51077;42.716;23.344;2023-02-21T09:28:20;95540.97;;;22.29;26.16
64668;BME280;51077;42.716;23.344;2023-02-21T09:30:46;95532.84;;;22.70;25.74
64668;BME280;51077;42.716;23.344;2023-02-21T09:33:12;95529.63;;;23.22;25.02
64668;BME280;51077;42.716;23.344;2023-02-21T09:35:37;95538.84;;;23.73;24.69
64668;BME280;51077;42.716;23.344;2023-02-21T09:38:04;95535.38;;;24.25;24.44
64668;BME280;51077;42.716;23.344;2023-02-21T09:43:25;95532.50;;;25.30;23.22
64668;BME280;51077;42.716;23.344;2023-02-21T09:45:55;95523.59;;;25.90;22.91
64668;BME280;51077;42.716;23.344;2023-02-21T09:48:22;95521.28;;;26.45;22.21
64668;BME280;51077;42.716;23.344;2023-02-21T09:50:51;95517.50;;;27.01;21.93
64668;BME280;51077;42.716;23.344;2023-02-21T09:53:21;95513.47;;;27.55;21.37
64668;BME280;51077;42.716;23.344;2023-02-21T09:55:50;95509.22;;;28.08;21.09
64668;BME280;51077;42.716;23.344;2023-02-21T09:58:19;95503.91;;;28.55;20.67
64668;BME280;51077;42.716;23.344;2023-02-21T10:00:45;95504.91;;;29.03;20.27
64668;BME280;51077;42.716;23.344;2023-02-21T10:03:45;95492.28;;;29.49;19.85
64668;BME280;51077;42.716;23.344;2023-02-21T10:06:31;95498.09;;;29.99;18.81
64668;BME280;51077;42.716;23.344;2023-02-21T10:09:02;95489.31;;;30.40;18.70
64668;BME280;51077;42.716;23.344;2023-02-21T10:17:14;95468.19;;;31.46;17.20
64668;BME280;51077;42.716;23.344;2023-02-21T10:19:43;95463.66;;;31.77;17.73
64668;BME280;51077;42.716;23.344;2023-02-21T10:22:17;95460.72;;;32.13;17.15
64668;BME280;51077;42.716;23.344;2023-02-21T10:24:43;95450.59;;;32.47;16.86
64668;BME280;51077;42.716;23.344;2023-02-21T10:27:18;95451.00;;;32.80;16.15
64668;BME280;51077;42.716;23.344;2023-02-21T10:32:16;95443.59;;;33.36;16.19
64668;BME280;51077;42.716;23.344;2023-02-21T10:34:44;95438.84;;;33.67;16.04
64668;BME280;51077;42.716;23.344;2023-02-21T10:40:03;95428.41;;;34.25;15.38
64668;BME280;51077;42.716;23.344;2023-02-21T10:42:36;95428.47;;;34.54;14.58
64668;BME280;51077;42.716;23.344;2023-02-21T10:45:03;95426.81;;;34.72;14.54
64668;BME280;51077;42.716;23.344;2023-02-21T10:50:10;95414.19;;;35.10;13.79
64668;BME280;51077;42.716;23.344;2023-02-21T10:52:50;95401.69;;;35.25;13.87
64668;BME280;51077;42.716;23.344;2023-02-21T10:55:21;95400.63;;;35.40;13.58
64668;BME280;51077;42.716;23.344;2023-02-21T10:57:55;95400.97;;;35.57;13.42
64668;BME280;51077;42.716;23.344;2023-02-21T11:02:56;95388.00;;;35.84;13.22
64668;BME280;51077;42.716;23.344;2023-02-21T11:05:27;95382.59;;;35.98;12.80
64668;BME280;51077;42.716;23.344;2023-02-21T11:08:04;95374.25;;;36.10;12.73
64668;BME280;51077;42.716;23.344;2023-02-21T11:15:28;95360.28;;;36.67;12.33
64668;BME280;51077;42.716;23.344;2023-02-21T11:20:36;95356.31;;;36.88;11.92
64668;BME280;51077;42.716;23.344;2023-02-21T11:23:02;95355.91;;;37.08;12.03
64668;BME280;51077;42.716;23.344;2023-02-21T11:25:36;95346.84;;;37.24;12.22
64668;BME280;51077;42.716;23.344;2023-02-21T11:30:39;95335.00;;;37.46;11.36
64668;BME280;51077;42.716;23.344;2023-02-21T11:33:10;95332.22;;;37.52;11.35
64668;BME280;51077;42.716;23.344;2023-02-21T11:35:45;95326.59;;;37.60;11.11
64668;BME280;51077;42.716;23.344;2023-02-21T11:40:54;95321.00;;;37.70;11.07
64668;BME280;51077;42.716;23.344;2023-02-21T11:43:23;95313.19;;;37.77;11.31
64668;BME280;51077;42.716;23.344;2023-02-21T11:46:18;95315.41;;;37.85;10.83
64668;BME280;51077;42.716;23.344;2023-02-21T11:51:46;95302.59;;;37.90;10.60
64668;BME280;51077;42.716;23.344;2023-02-21T11:54:13;95299.88;;;38.04;11.05
64668;BME280;51077;42.716;23.344;2023-02-21T11:59:32;95285.19;;;38.40;10.91
64668;BME280;51077;42.716;23.344;2023-02-21T12:04:43;95272.44;;;38.58;10.83
64668;BME280;51077;42.716;23.344;2023-02-21T12:07:28;95266.75;;;38.68;10.71
64668;BME280;51077;42.716;23.344;2023-02-21T12:12:48;95260.53;;;38.98;10.34
64668;BME280;51077;42.716;23.344;2023-02-21T12:15:42;95259.81;;;39.00;10.38
64668;BME280;51077;42.716;23.344;2023-02-21T12:24:23;95228.91;;;37.34;10.95
64668;BME280;51077;42.716;23.344;2023-02-21T12:27:06;95236.19;;;37.41;10.74
64668;BME280;51077;42.716;23.344;2023-02-21T12:45:58;95212.34;;;37.89;11.14
64668;BME280;51077;42.716;23.344;2023-02-21T12:50:58;95205.97;;;37.98;10.73
64668;BME280;51077;42.716;23.344;2023-02-21T12:53:59;95200.84;;;37.87;10.75
64668;BME280;51077;42.716;23.344;2023-02-21T12:56:45;95198.47;;;37.63;10.78
64668;BME280;51077;42.716;23.344;2023-02-21T12:59:21;95208.31;;;37.47;11.15
64668;BME280;51077;42.716;23.344;2023-02-21T13:01:55;95202.53;;;37.43;11.07
64668;BME280;51077;42.716;23.344;2023-02-21T13:04:51;95197.56;;;37.46;10.88
64668;BME280;51077;42.716;23.344;2023-02-21T13:07:45;95200.50;;;37.52;10.88
64668;BME280;51077;42.716;23.344;2023-02-21T13:10:25;95196.22;;;37.53;10.93
64668;BME280;51077;42.716;23.344;2023-02-21T13:13:14;95189.72;;;37.48;10.63
64668;BME280;51077;42.716;23.344;2023-02-21T13:15:43;95191.09;;;37.43;10.77
64668;BME280;51077;42.716;23.344;2023-02-21T13:18:22;95188.19;;;37.39;10.85
64668;BME280;51077;42.716;23.344;2023-02-21T13:21:01;95187.19;;;37.14;10.95
64668;BME280;51077;42.716;23.344;2023-02-21T13:23:50;95188.16;;;36.83;10.60
64668;BME280;51077;42.716;23.344;2023-02-21T13:26:48;95180.19;;;36.73;10.82
64668;BME280;51077;42.716;23.344;2023-02-21T13:31:58;95169.94;;;36.54;10.84
64668;BME280;51077;42.716;23.344;2023-02-21T13:34:27;95174.16;;;36.51;11.00
64668;BME280;51077;42.716;23.344;2023-02-21T13:37:00;95169.63;;;36.35;10.80
64668;BME280;51077;42.716;23.344;2023-02-21T13:39:29;95163.09;;;36.29;11.51
64668;BME280;51077;42.716;23.344;2023-02-21T13:42:18;95161.53;;;36.19;11.46
64668;BME280;51077;42.716;23.344;2023-02-21T13:44:47;95168.59;;;36.14;11.80
64668;BME280;51077;42.716;23.344;2023-02-21T13:47:15;95161.31;;;36.05;11.86
64668;BME280;51077;42.716;23.344;2023-02-21T13:49:42;95153.25;;;35.93;12.36
64668;BME280;51077;42.716;23.344;2023-02-21T13:57:40;95143.84;;;35.46;12.45
64668;BME280;51077;42.716;23.344;2023-02-21T14:03:01;95143.34;;;35.18;12.13
64668;BME280;51077;42.716;23.344;2023-02-21T14:08:42;95139.75;;;34.81;12.55
64668;BME280;51077;42.716;23.344;2023-02-21T14:13:46;95149.66;;;34.46;12.58
64668;BME280;51077;42.716;23.344;2023-02-21T14:21:06;95145.31;;;33.83;13.29
64668;BME280;51077;42.716;23.344;2023-02-21T14:26:05;95149.25;;;33.41;15.60
64668;BME280;51077;42.716;23.344;2023-02-21T14:34:48;95143.28;;;32.79;16.15
64668;BME280;51077;42.716;23.344;2023-02-21T14:37:35;95133.44;;;32.58;16.73
64668;BME280;51077;42.716;23.344;2023-02-21T14:47:44;95134.31;;;31.73;17.08
64668;BME280;51077;42.716;23.344;2023-02-21T14:50:22;95133.53;;;31.48;17.23
64668;BME280;51077;42.716;23.344;2023-02-21T15:03:28;95123.22;;;30.20;17.80
64668;BME280;51077;42.716;23.344;2023-02-21T15:06:04;95123.72;;;29.96;17.87
64668;BME280;51077;42.716;23.344;2023-02-21T15:08:40;95118.53;;;29.73;18.39
64668;BME280;51077;42.716;23.344;2023-02-21T15:11:16;95119.06;;;29.51;18.18
64668;BME280;51077;42.716;23.344;2023-02-21T15:13:42;95125.19;;;29.28;18.27
64668;BME280;51077;42.716;23.344;2023-02-21T15:16:09;95121.50;;;29.08;18.29
64668;BME280;51077;42.716;23.344;2023-02-21T15:18:37;95119.13;;;28.86;18.49
64668;BME280;51077;42.716;23.344;2023-02-21T15:23:38;95124.25;;;28.42;18.55
64668;BME280;51077;42.716;23.344;2023-02-21T15:26:22;95128.06;;;28.17;19.24
64668;BME280;51077;42.716;23.344;2023-02-21T15:31:49;95136.38;;;27.70;19.22
64668;BME280;51077;42.716;23.344;2023-02-21T15:34:24;95135.72;;;27.42;19.58
64668;BME280;51077;42.716;23.344;2023-02-21T15:37:03;95140.88;;;27.18;19.52
64668;BME280;51077;42.716;23.344;2023-02-21T15:39:34;95149.94;;;26.89;19.49
64668;BME280;51077;42.716;23.344;2023-02-21T15:42:05;95142.31;;;26.64;20.15
64668;BME280;51077;42.716;23.344;2023-02-21T15:47:12;95145.94;;;26.13;20.25
64668;BME280;51077;42.716;23.344;2023-02-21T15:52:40;95148.25;;;25.54;20.56
64668;BME280;51077;42.716;23.344;2023-02-21T15:55:26;95152.38;;;25.27;21.00